sensor_id;sensor_type;location;lat;lon;timestamp;pressure;altitude;pressure_sealevel;temperature;humidity
48200;BME280;33990;44.602;10.976;2023-03-19T00:00:30;101381.09;;;18.51;44.06
48200;BME280;33990;44.602;10.976;2023-03-19T00:02:58;101376.66;;;18.50;44.06
48200;BME280;33990;44.602;10.976;2023-03-19T00:05:25;101374.00;;;18.50;44.06
48200;BME280;33990;44.602;10.976;2023-03-19T00:07:53;101376.66;;;18.50;44.13
48200;BME280;33990;44.602;10.976;2023-03-19T00:10:20;101377.66;;;18.49;44.14
48200;BME280;33990;44.602;10.976;2023-03-19T00:12:47;101376.66;;;18.50;44.10
48200;BME280;33990;44.602;10.976;2023-03-19T00:15:15;101385.69;;;18.49;44.01
48200;BME280;33990;44.602;10.976;2023-03-19T00:17:42;101386.53;;;18.50;44.24
48200;BME280;33990;44.602;10.976;2023-03-19T00:20:11;101390.19;;;18.49;44.21
48200;BME280;33990;44.602;10.976;2023-03-19T00:22:38;101387.53;;;18.49;44.26
48200;BME280;33990;44.602;10.976;2023-03-19T00:25:07;101388.38;;;18.49;44.24
48200;BME280;33990;44.602;10.976;2023-03-19T00:27:36;101393.72;;;18.49;44.25
48200;BME280;33990;44.602;10.976;2023-03-19T00:30:06;101398.25;;;18.49;44.31
48200;BME280;33990;44.602;10.976;2023-03-19T00:32:34;101378.50;;;18.50;44.36
48200;BME280;33990;44.602;10.976;2023-03-19T00:35:03;101369.72;;;18.48;44.23
48200;BME280;33990;44.602;10.976;2023-03-19T00:37:33;101371.44;;;18.49;44.30
48200;BME280;33990;44.602;10.976;2023-03-19T00:40:02;101375.81;;;18.50;44.36
48200;BME280;33990;44.602;10.976;2023-03-19T00:42:31;101383.00;;;18.49;44.48
48200;BME280;33990;44.602;10.976;2023-03-19T00:44:59;101395.56;;;18.49;44.29
48200;BME280;33990;44.602;10.976;2023-03-19T00:47:26;101393.72;;;18.49;44.40
48200;BME280;33990;44.602;10.976;2023-03-19T00:49:53;101393.72;;;18.49;44.30
48200;BME280;33990;44.602;10.976;2023-03-19T00:52:21;101388.38;;;18.49;44.15
48200;BME280;33990;44.602;10.976;2023-03-19T00:54:49;101395.56;;;18.49;44.36
48200;BME280;33990;44.602;10.976;2023-03-19T00:57:18;101392.88;;;18.49;44.38
48200;BME280;33990;44.602;10.976;2023-03-19T00:59:45;101384.84;;;18.49;44.35
48200;BME280;33990;44.602;10.976;2023-03-19T01:02:13;101382.16;;;18.49;44.47
48200;BME280;33990;44.602;10.976;2023-03-19T01:04:40;101381.31;;;18.48;44.53
48200;BME280;33990;44.602;10.976;2023-03-19T01:07:08;101381.31;;;18.48;44.49
48200;BME280;33990;44.602;10.976;2023-03-19T01:09:35;101380.47;;;18.48;44.41
48200;BME280;33990;44.602;10.976;2023-03-19T01:12:03;101369.72;;;18.48;44.37
48200;BME280;33990;44.602;10.976;2023-03-19T01:14:32;101360.84;;;18.47;44.33
48200;BME280;33990;44.602;10.976;2023-03-19T01:16:59;101357.28;;;18.47;44.34
48200;BME280;33990;44.602;10.976;2023-03-19T01:19:28;101358.16;;;18.47;44.31
48200;BME280;33990;44.602;10.976;2023-03-19T01:21:56;101357.28;;;18.47;44.42
48200;BME280;33990;44.602;10.976;2023-03-19T01:24:23;101344.84;;;18.46;44.33
48200;BME280;33990;44.602;10.976;2023-03-19T01:26:55;101344.84;;;18.46;44.27
48200;BME280;33990;44.602;10.976;2023-03-19T01:29:29;101341.19;;;18.47;44.26
48200;BME280;33990;44.602;10.976;2023-03-19T01:31:59;101347.53;;;18.46;44.52
48200;BME280;33990;44.602;10.976;2023-03-19T01:34:32;101351.19;;;18.45;44.25
48200;BME280;33990;44.602;10.976;2023-03-19T01:37:11;101351.06;;;18.46;44.31
48200;BME280;33990;44.602;10.976;2023-03-19T01:39:40;101346.66;;;18.45;44.21
48200;BME280;33990;44.602;10.976;2023-03-19T01:42:11;101342.16;;;18.46;43.95
48200;BME280;33990;44.602;10.976;2023-03-19T01:45:02;101340.47;;;18.45;44.39
48200;BME280;33990;44.602;10.976;2023-03-19T01:47:59;101348.50;;;18.45;44.42
48200;BME280;33990;44.602;10.976;2023-03-19T01:50:45;101347.66;;;18.44;44.19
48200;BME280;33990;44.602;10.976;2023-03-19T01:53:26;101349.47;;;18.44;44.29
48200;BME280;33990;44.602;10.976;2023-03-19T01:56:03;101362.88;;;18.44;44.32
48200;BME280;33990;44.602;10.976;2023-03-19T01:58:57;101365.56;;;18.44;44.42
48200;BME280;33990;44.602;10.976;2023-03-19T02:01:51;101369.09;;;18.44;44.31
48200;BME280;33990;44.602;10.976;2023-03-19T02:04:23;101354.84;;;18.44;44.38
48200;BME280;33990;44.602;10.976;2023-03-19T02:06:54;101367.41;;;18.43;44.27
48200;BME280;33990;44.602;10.976;2023-03-19T02:09:23;101362.88;;;18.44;44.41
48200;BME280;33990;44.602;10.976;2023-03-19T02:11:54;101378.13;;;18.43;44.34
48200;BME280;33990;44.602;10.976;2023-03-19T02:14:22;101372.75;;;18.43;44.42
48200;BME280;33990;44.602;10.976;2023-03-19T02:16:51;101374.56;;;18.43;44.37
48200;BME280;33990;44.602;10.976;2023-03-19T02:19:30;101370.06;;;18.43;44.34
48200;BME280;33990;44.602;10.976;2023-03-19T02:22:02;101363.84;;;18.43;44.35
48200;BME280;33990;44.602;10.976;2023-03-19T02:24:43;101361.16;;;18.43;44.39
48200;BME280;33990;44.602;10.976;2023-03-19T02:27:13;101358.47;;;18.43;44.44
48200;BME280;33990;44.602;10.976;2023-03-19T02:29:45;101358.47;;;18.43;44.25
48200;BME280;33990;44.602;10.976;2023-03-19T02:32:15;101357.63;;;18.42;44.34
48200;BME280;33990;44.602;10.976;2023-03-19T02:34:43;101348.72;;;18.42;44.39
48200;BME280;33990;44.602;10.976;2023-03-19T02:40:05;101353.22;;;18.41;44.39
48200;BME280;33990;44.602;10.976;2023-03-19T02:42:34;101356.75;;;18.42;44.32
48200;BME280;33990;44.602;10.976;2023-03-19T02:45:02;101358.59;;;18.41;44.43
48200;BME280;33990;44.602;10.976;2023-03-19T02:47:29;101351.41;;;18.42;44.41
48200;BME280;33990;44.602;10.976;2023-03-19T02:49:57;101356.03;;;18.40;44.37
48200;BME280;33990;44.602;10.976;2023-03-19T02:52:24;101356.88;;;18.40;44.47
48200;BME280;33990;44.602;10.976;2023-03-19T02:54:52;101359.56;;;18.40;44.44
48200;BME280;33990;44.602;10.976;2023-03-19T02:57:19;101354.22;;;18.40;44.49
48200;BME280;33990;44.602;10.976;2023-03-19T02:59:47;101353.34;;;18.40;44.33
48200;BME280;33990;44.602;10.976;2023-03-19T03:02:14;101359.56;;;18.40;44.30
48200;BME280;33990;44.602;10.976;2023-03-19T03:04:42;101339.94;;;18.40;44.41
48200;BME280;33990;44.602;10.976;2023-03-19T03:07:09;101349.81;;;18.39;44.45
48200;BME280;33990;44.602;10.976;2023-03-19T03:09:36;101344.47;;;18.39;44.49
48200;BME280;33990;44.602;10.976;2023-03-19T03:12:04;101342.63;;;18.40;44.59
48200;BME280;33990;44.602;10.976;2023-03-19T03:14:32;101356.03;;;18.40;44.59
48200;BME280;33990;44.602;10.976;2023-03-19T03:16:59;101354.22;;;18.40;44.54
48200;BME280;33990;44.602;10.976;2023-03-19T03:19:26;101348.94;;;18.39;44.48
48200;BME280;33990;44.602;10.976;2023-03-19T03:21:54;101349.81;;;18.39;44.63
48200;BME280;33990;44.602;10.976;2023-03-19T03:24:21;101345.31;;;18.40;44.70
48200;BME280;33990;44.602;10.976;2023-03-19T03:26:48;101341.78;;;18.39;44.44
48200;BME280;33990;44.602;10.976;2023-03-19T03:29:16;101338.22;;;18.39;44.67
48200;BME280;33990;44.602;10.976;2023-03-19T03:31:43;101333.75;;;18.39;44.63
48200;BME280;33990;44.602;10.976;2023-03-19T03:34:10;101339.94;;;18.40;44.59
48200;BME280;33990;44.602;10.976;2023-03-19T03:36:38;101336.41;;;18.39;44.63
48200;BME280;33990;44.602;10.976;2023-03-19T03:39:05;101332.84;;;18.39;44.55
48200;BME280;33990;44.602;10.976;2023-03-19T03:41:32;101331.16;;;18.38;44.61
48200;BME280;33990;44.602;10.976;2023-03-19T03:44:01;101338.22;;;18.39;44.57
48200;BME280;33990;44.602;10.976;2023-03-19T03:46:32;101341.78;;;18.39;44.74
48200;BME280;33990;44.602;10.976;2023-03-19T03:49:00;101337.38;;;18.38;44.65
48200;BME280;33990;44.602;10.976;2023-03-19T03:51:27;101342.72;;;18.38;44.70
48200;BME280;33990;44.602;10.976;2023-03-19T03:53:55;101344.56;;;18.38;44.67
48200;BME280;33990;44.602;10.976;2023-03-19T03:56:22;101357.97;;;18.38;44.58
48200;BME280;33990;44.602;10.976;2023-03-19T03:58:49;101367.81;;;18.37;44.72
48200;BME280;33990;44.602;10.976;2023-03-19T04:01:18;101363.31;;;18.38;44.57
48200;BME280;33990;44.602;10.976;2023-03-19T04:03:50;101370.50;;;18.37;44.67
48200;BME280;33990;44.602;10.976;2023-03-19T04:06:22;101364.28;;;18.37;44.62
48200;BME280;33990;44.602;10.976;2023-03-19T04:09:10;101375.03;;;18.37;44.71
48200;BME280;33990;44.602;10.976;2023-03-19T04:11:39;101359.91;;;18.36;44.69
48200;BME280;33990;44.602;10.976;2023-03-19T04:14:07;101377.69;;;18.37;44.71
48200;BME280;33990;44.602;10.976;2023-03-19T04:16:37;101376.00;;;18.36;44.74
48200;BME280;33990;44.602;10.976;2023-03-19T04:19:04;101379.53;;;18.36;44.72
48200;BME280;33990;44.602;10.976;2023-03-19T04:21:34;101379.53;;;18.36;44.58
48200;BME280;33990;44.602;10.976;2023-03-19T04:24:01;101374.16;;;18.36;44.72
48200;BME280;33990;44.602;10.976;2023-03-19T04:26:28;101383.06;;;18.37;44.62
48200;BME280;33990;44.602;10.976;2023-03-19T04:28:57;101383.91;;;18.37;44.69
48200;BME280;33990;44.602;10.976;2023-03-19T04:31:24;101389.28;;;18.37;44.62
48200;BME280;33990;44.602;10.976;2023-03-19T04:33:52;101391.94;;;18.37;44.64
48200;BME280;33990;44.602;10.976;2023-03-19T04:36:19;101388.41;;;18.37;44.75
48200;BME280;33990;44.602;10.976;2023-03-19T04:38:47;101394.63;;;18.37;44.79
48200;BME280;33990;44.602;10.976;2023-03-19T04:41:15;101385.75;;;18.37;44.67
48200;BME280;33990;44.602;10.976;2023-03-19T04:43:55;101389.28;;;18.37;44.83
48200;BME280;33990;44.602;10.976;2023-03-19T04:46:23;101382.22;;;18.36;44.77
48200;BME280;33990;44.602;10.976;2023-03-19T04:48:50;101383.91;;;18.37;44.71
48200;BME280;33990;44.602;10.976;2023-03-19T04:51:18;101383.06;;;18.37;44.70
48200;BME280;33990;44.602;10.976;2023-03-19T04:53:47;101392.94;;;18.36;44.66
48200;BME280;33990;44.602;10.976;2023-03-19T04:56:17;101390.25;;;18.36;44.72
48200;BME280;33990;44.602;10.976;2023-03-19T04:58:45;101381.34;;;18.36;44.70
48200;BME280;33990;44.602;10.976;2023-03-19T05:01:12;101381.34;;;18.36;44.65
48200;BME280;33990;44.602;10.976;2023-03-19T05:03:58;101390.25;;;18.36;44.70
48200;BME280;33990;44.602;10.976;2023-03-19T05:06:26;101382.22;;;18.36;44.74
48200;BME280;33990;44.602;10.976;2023-03-19T05:08:54;101386.72;;;18.36;44.69
48200;BME280;33990;44.602;10.976;2023-03-19T05:11:22;101384.97;;;18.35;44.64
48200;BME280;33990;44.602;10.976;2023-03-19T05:13:59;101390.34;;;18.35;44.70
48200;BME280;33990;44.602;10.976;2023-03-19T05:16:33;101385.97;;;18.34;44.88
48200;BME280;33990;44.602;10.976;2023-03-19T05:19:01;101386.81;;;18.34;44.83
48200;BME280;33990;44.602;10.976;2023-03-19T05:21:31;101386.81;;;18.34;44.71
48200;BME280;33990;44.602;10.976;2023-03-19T05:23:59;101393.03;;;18.35;44.83
48200;BME280;33990;44.602;10.976;2023-03-19T05:26:28;101393.03;;;18.35;44.87
48200;BME280;33990;44.602;10.976;2023-03-19T05:29:14;101388.63;;;18.34;44.84
48200;BME280;33990;44.602;10.976;2023-03-19T05:31:59;101396.69;;;18.34;44.58
48200;BME280;33990;44.602;10.976;2023-03-19T05:34:30;101387.78;;;18.33;44.85
48200;BME280;33990;44.602;10.976;2023-03-19T05:36:57;101396.69;;;18.34;44.89
48200;BME280;33990;44.602;10.976;2023-03-19T05:39:25;101394.00;;;18.34;44.91
48200;BME280;33990;44.602;10.976;2023-03-19T05:41:53;101403.00;;;18.33;44.87
48200;BME280;33990;44.602;10.976;2023-03-19T05:44:26;101398.50;;;18.33;44.83
48200;BME280;33990;44.602;10.976;2023-03-19T05:47:01;101401.19;;;18.33;44.69
48200;BME280;33990;44.602;10.976;2023-03-19T05:49:32;101399.47;;;18.32;44.85
48200;BME280;33990;44.602;10.976;2023-03-19T05:51:59;101401.31;;;18.32;44.91
48200;BME280;33990;44.602;10.976;2023-03-19T05:54:30;101394.13;;;18.32;44.76
48200;BME280;33990;44.602;10.976;2023-03-19T05:57:06;101401.31;;;18.32;44.76
48200;BME280;33990;44.602;10.976;2023-03-19T05:59:48;101409.34;;;18.32;44.85
48200;BME280;33990;44.602;10.976;2023-03-19T06:02:28;101411.19;;;18.31;44.77
48200;BME280;33990;44.602;10.976;2023-03-19T06:05:11;101417.41;;;18.32;45.00
48200;BME280;33990;44.602;10.976;2023-03-19T06:07:39;101421.91;;;18.31;44.93
48200;BME280;33990;44.602;10.976;2023-03-19T06:10:13;101426.38;;;18.31;45.00
48200;BME280;33990;44.602;10.976;2023-03-19T06:12:41;101421.00;;;18.31;44.92
48200;BME280;33990;44.602;10.976;2023-03-19T06:15:28;101433.47;;;18.32;44.82
48200;BME280;33990;44.602;10.976;2023-03-19T06:18:19;101431.75;;;18.31;44.70
48200;BME280;33990;44.602;10.976;2023-03-19T06:20:47;101433.56;;;18.30;44.88
48200;BME280;33990;44.602;10.976;2023-03-19T06:23:16;101436.25;;;18.30;44.90
48200;BME280;33990;44.602;10.976;2023-03-19T06:25:44;101446.13;;;18.29;44.89
48200;BME280;33990;44.602;10.976;2023-03-19T06:28:12;101443.44;;;18.29;44.83
48200;BME280;33990;44.602;10.976;2023-03-19T06:30:42;101445.25;;;18.29;44.76
48200;BME280;33990;44.602;10.976;2023-03-19T06:33:32;101448.78;;;18.29;44.81
48200;BME280;33990;44.602;10.976;2023-03-19T06:36:00;101450.63;;;18.29;44.88
48200;BME280;33990;44.602;10.976;2023-03-19T06:38:30;101446.13;;;18.29;44.88
48200;BME280;33990;44.602;10.976;2023-03-19T06:40:58;101446.13;;;18.29;44.80
48200;BME280;33990;44.602;10.976;2023-03-19T06:43:25;101450.63;;;18.29;44.79
48200;BME280;33990;44.602;10.976;2023-03-19T06:45:52;101444.41;;;18.28;45.00
48200;BME280;33990;44.602;10.976;2023-03-19T06:48:20;101450.63;;;18.29;44.82
48200;BME280;33990;44.602;10.976;2023-03-19T06:50:47;101443.44;;;18.29;44.90
48200;BME280;33990;44.602;10.976;2023-03-19T06:53:14;101445.25;;;18.29;44.93
48200;BME280;33990;44.602;10.976;2023-03-19T06:55:45;101454.16;;;18.29;44.92
48200;BME280;33990;44.602;10.976;2023-03-19T06:58:12;101461.34;;;18.29;44.88
48200;BME280;33990;44.602;10.976;2023-03-19T07:00:40;101467.56;;;18.29;44.80
48200;BME280;33990;44.602;10.976;2023-03-19T07:03:08;101465.84;;;18.28;44.88
48200;BME280;33990;44.602;10.976;2023-03-19T07:05:36;101469.50;;;18.27;45.00
48200;BME280;33990;44.602;10.976;2023-03-19T07:08:03;101464.16;;;18.27;44.96
48200;BME280;33990;44.602;10.976;2023-03-19T07:10:33;101467.69;;;18.28;45.03
48200;BME280;33990;44.602;10.976;2023-03-19T07:13:00;101468.53;;;18.28;44.98
48200;BME280;33990;44.602;10.976;2023-03-19T07:15:28;101476.56;;;18.28;44.89
48200;BME280;33990;44.602;10.976;2023-03-19T07:17:55;101485.59;;;18.27;45.01
48200;BME280;33990;44.602;10.976;2023-03-19T07:20:23;101495.34;;;18.28;45.15
48200;BME280;33990;44.602;10.976;2023-03-19T07:22:50;101507.75;;;18.29;45.00
48200;BME280;33990;44.602;10.976;2023-03-19T07:25:18;101502.53;;;18.28;45.12
48200;BME280;33990;44.602;10.976;2023-03-19T07:27:46;101503.38;;;18.28;45.02
48200;BME280;33990;44.602;10.976;2023-03-19T07:30:13;101508.75;;;18.28;45.08
48200;BME280;33990;44.602;10.976;2023-03-19T07:32:42;101516.78;;;18.28;45.19
48200;BME280;33990;44.602;10.976;2023-03-19T07:35:10;101508.75;;;18.28;45.36
48200;BME280;33990;44.602;10.976;2023-03-19T07:37:37;101507.88;;;18.28;44.34
48200;BME280;33990;44.602;10.976;2023-03-19T07:40:05;101513.34;;;18.26;44.51
48200;BME280;33990;44.602;10.976;2023-03-19T07:42:33;101509.91;;;18.24;45.17
48200;BME280;33990;44.602;10.976;2023-03-19T07:45:03;101510.78;;;18.25;44.37
48200;BME280;33990;44.602;10.976;2023-03-19T07:47:31;101517.09;;;18.24;44.54
48200;BME280;33990;44.602;10.976;2023-03-19T07:49:58;101516.25;;;18.23;44.82
48200;BME280;33990;44.602;10.976;2023-03-19T07:52:26;101528.69;;;18.24;45.30
48200;BME280;33990;44.602;10.976;2023-03-19T07:54:54;101523.31;;;18.24;45.29
48200;BME280;33990;44.602;10.976;2023-03-19T07:57:22;101525.03;;;18.25;45.29
48200;BME280;33990;44.602;10.976;2023-03-19T07:59:51;101530.25;;;18.27;45.30
48200;BME280;33990;44.602;10.976;2023-03-19T08:02:19;101526.66;;;18.28;45.33
48200;BME280;33990;44.602;10.976;2023-03-19T08:04:49;101523.97;;;18.28;45.33
48200;BME280;33990;44.602;10.976;2023-03-19T08:07:17;101526.53;;;18.29;45.48
48200;BME280;33990;44.602;10.976;2023-03-19T08:09:44;101528.22;;;18.31;45.68
48200;BME280;33990;44.602;10.976;2023-03-19T08:12:12;101527.38;;;18.30;45.37
48200;BME280;33990;44.602;10.976;2023-03-19T08:14:39;101524.59;;;18.32;45.44
48200;BME280;33990;44.602;10.976;2023-03-19T08:17:07;101527.28;;;18.32;45.62
48200;BME280;33990;44.602;10.976;2023-03-19T08:19:34;101520.09;;;18.32;45.34
48200;BME280;33990;44.602;10.976;2023-03-19T08:22:02;101527.16;;;18.33;45.12
48200;BME280;33990;44.602;10.976;2023-03-19T08:24:29;101532.53;;;18.33;45.26
48200;BME280;33990;44.602;10.976;2023-03-19T08:26:57;101528.88;;;18.34;45.19
48200;BME280;33990;44.602;10.976;2023-03-19T08:29:24;101519.00;;;18.35;45.14
48200;BME280;33990;44.602;10.976;2023-03-19T08:31:54;101523.44;;;18.36;44.91
48200;BME280;33990;44.602;10.976;2023-03-19T08:34:22;101523.44;;;18.36;44.91
48200;BME280;33990;44.602;10.976;2023-03-19T08:36:49;101525.13;;;18.37;44.77
48200;BME280;33990;44.602;10.976;2023-03-19T08:39:17;101521.59;;;18.36;44.50
48200;BME280;33990;44.602;10.976;2023-03-19T08:41:44;101529.53;;;18.38;44.73
48200;BME280;33990;44.602;10.976;2023-03-19T08:44:11;101533.19;;;18.37;44.75
48200;BME280;33990;44.602;10.976;2023-03-19T08:46:39;101533.06;;;18.38;44.68
48200;BME280;33990;44.602;10.976;2023-03-19T08:49:06;101536.59;;;18.39;45.27
48200;BME280;33990;44.602;10.976;2023-03-19T08:51:33;101531.22;;;18.39;44.73
48200;BME280;33990;44.602;10.976;2023-03-19T08:54:01;101541.00;;;18.40;44.60
48200;BME280;33990;44.602;10.976;2023-03-19T08:56:28;101533.81;;;18.40;44.65
48200;BME280;33990;44.602;10.976;2023-03-19T08:58:56;101544.53;;;18.40;44.60
48200;BME280;33990;44.602;10.976;2023-03-19T09:01:24;101543.69;;;18.40;44.46
48200;BME280;33990;44.602;10.976;2023-03-19T09:03:51;101538.31;;;18.40;44.54
48200;BME280;33990;44.602;10.976;2023-03-19T09:06:18;101542.59;;;18.42;44.63
48200;BME280;33990;44.602;10.976;2023-03-19T09:08:46;101544.41;;;18.42;45.20
48200;BME280;33990;44.602;10.976;2023-03-19T09:11:13;101540.78;;;18.43;44.69
48200;BME280;33990;44.602;10.976;2023-03-19T09:13:42;101535.41;;;18.43;44.56
48200;BME280;33990;44.602;10.976;2023-03-19T09:16:10;101538.84;;;18.45;44.71
48200;BME280;33990;44.602;10.976;2023-03-19T09:18:37;101535.41;;;18.43;44.59
48200;BME280;33990;44.602;10.976;2023-03-19T09:21:04;101545.19;;;18.44;44.69
48200;BME280;33990;44.602;10.976;2023-03-19T09:23:32;101546.03;;;18.44;44.72
48200;BME280;33990;44.602;10.976;2023-03-19T09:25:59;101540.69;;;18.44;44.65
48200;BME280;33990;44.602;10.976;2023-03-19T09:28:27;101543.34;;;18.44;44.72
48200;BME280;33990;44.602;10.976;2023-03-19T09:30:54;101542.38;;;18.45;44.94
48200;BME280;33990;44.602;10.976;2023-03-19T09:33:22;101541.53;;;18.45;44.79
48200;BME280;33990;44.602;10.976;2023-03-19T09:35:51;101537.03;;;18.45;44.86
48200;BME280;33990;44.602;10.976;2023-03-19T09:38:20;101537.16;;;18.44;45.00
48200;BME280;33990;44.602;10.976;2023-03-19T09:40:58;101543.25;;;18.46;45.33
48200;BME280;33990;44.602;10.976;2023-03-19T09:46:20;101544.09;;;18.46;45.58
48200;BME280;33990;44.602;10.976;2023-03-19T09:48:59;101533.38;;;18.46;45.49
48200;BME280;33990;44.602;10.976;2023-03-19T09:51:38;101536.03;;;18.46;45.63
48200;BME280;33990;44.602;10.976;2023-03-19T09:56:46;101536.81;;;18.48;46.03
48200;BME280;33990;44.602;10.976;2023-03-19T09:59:13;101518.03;;;18.48;46.15
48200;BME280;33990;44.602;10.976;2023-03-19T10:01:44;101517.19;;;18.48;46.11
48200;BME280;33990;44.602;10.976;2023-03-19T10:04:39;101528.66;;;18.50;46.04
48200;BME280;33990;44.602;10.976;2023-03-19T10:10:02;101523.28;;;18.50;46.39
48200;BME280;33990;44.602;10.976;2023-03-19T10:15:30;101531.13;;;18.53;46.70
48200;BME280;33990;44.602;10.976;2023-03-19T10:18:19;101524.78;;;18.54;46.62
48200;BME280;33990;44.602;10.976;2023-03-19T10:26:16;101530.06;;;18.56;47.34
48200;BME280;33990;44.602;10.976;2023-03-19T10:28:54;101529.94;;;18.57;46.91
48200;BME280;33990;44.602;10.976;2023-03-19T10:31:28;101529.06;;;18.57;47.12
48200;BME280;33990;44.602;10.976;2023-03-19T10:34:56;101528.22;;;18.56;46.90
48200;BME280;33990;44.602;10.976;2023-03-19T10:37:22;101530.78;;;18.58;47.23
48200;BME280;33990;44.602;10.976;2023-03-19T10:39:52;101522.75;;;18.58;46.32
48200;BME280;33990;44.602;10.976;2023-03-19T10:45:27;101512.88;;;18.58;46.57
48200;BME280;33990;44.602;10.976;2023-03-19T10:47:56;101514.56;;;18.59;47.19
48200;BME280;33990;44.602;10.976;2023-03-19T10:50:30;101520.50;;;18.64;47.47
48200;BME280;33990;44.602;10.976;2023-03-19T10:56:04;101509.34;;;18.70;45.25
48200;BME280;33990;44.602;10.976;2023-03-19T10:58:35;101508.47;;;18.70;45.83
48200;BME280;33990;44.602;10.976;2023-03-19T11:01:08;101512.97;;;18.69;46.12
48200;BME280;33990;44.602;10.976;2023-03-19T11:03:48;101502.34;;;18.68;46.23
48200;BME280;33990;44.602;10.976;2023-03-19T11:06:26;101502.44;;;18.66;46.14
48200;BME280;33990;44.602;10.976;2023-03-19T11:11:50;101495.59;;;18.62;46.09
48200;BME280;33990;44.602;10.976;2023-03-19T11:14:23;101508.03;;;18.63;46.03
48200;BME280;33990;44.602;10.976;2023-03-19T11:18:04;101496.44;;;18.63;45.98
48200;BME280;33990;44.602;10.976;2023-03-19T11:20:31;101491.94;;;18.63;46.09
48200;BME280;33990;44.602;10.976;2023-03-19T11:23:01;101491.94;;;18.63;46.01
48200;BME280;33990;44.602;10.976;2023-03-19T11:28:19;101492.91;;;18.62;46.07
48200;BME280;33990;44.602;10.976;2023-03-19T11:31:13;101484.00;;;18.62;46.03
48200;BME280;33990;44.602;10.976;2023-03-19T11:56:07;101457.81;;;18.65;46.41
48200;BME280;33990;44.602;10.976;2023-03-19T11:58:50;101464.03;;;18.66;46.39
48200;BME280;33990;44.602;10.976;2023-03-19T12:04:18;101454.16;;;18.66;46.55
48200;BME280;33990;44.602;10.976;2023-03-19T12:21:40;101436.38;;;18.65;46.30
48200;BME280;33990;44.602;10.976;2023-03-19T12:27:45;101423.09;;;18.64;46.28
48200;BME280;33990;44.602;10.976;2023-03-19T12:33:23;101426.63;;;18.64;46.33
48200;BME280;33990;44.602;10.976;2023-03-19T12:35:57;101427.34;;;18.66;46.58
48200;BME280;33990;44.602;10.976;2023-03-19T12:38:40;101420.28;;;18.65;49.42
48200;BME280;33990;44.602;10.976;2023-03-19T12:41:17;101421.13;;;18.66;52.34
48200;BME280;33990;44.602;10.976;2023-03-19T12:44:01;101425.66;;;18.65;52.67
48200;BME280;33990;44.602;10.976;2023-03-19T12:46:41;101406.13;;;18.63;54.51
48200;BME280;33990;44.602;10.976;2023-03-19T12:49:15;101416.00;;;18.63;54.37
48200;BME280;33990;44.602;10.976;2023-03-19T12:51:52;101412.56;;;18.61;55.94
48200;BME280;33990;44.602;10.976;2023-03-19T12:54:26;101406.38;;;18.60;56.30
48200;BME280;33990;44.602;10.976;2023-03-19T12:57:26;101412.78;;;18.58;55.06
48200;BME280;33990;44.602;10.976;2023-03-19T13:10:51;101391.47;;;18.56;57.37
48200;BME280;33990;44.602;10.976;2023-03-19T13:13:50;101381.69;;;18.55;57.03
48200;BME280;33990;44.602;10.976;2023-03-19T13:16:45;101383.53;;;18.54;57.78
48200;BME280;33990;44.602;10.976;2023-03-19T13:19:49;101388.88;;;18.54;58.44
48200;BME280;33990;44.602;10.976;2023-03-19T13:22:22;101382.66;;;18.54;59.18
48200;BME280;33990;44.602;10.976;2023-03-19T13:24:53;101382.66;;;18.54;58.17
48200;BME280;33990;44.602;10.976;2023-03-19T13:27:25;101376.44;;;18.53;59.24
48200;BME280;33990;44.602;10.976;2023-03-19T13:32:39;101383.53;;;18.54;59.33
48200;BME280;33990;44.602;10.976;2023-03-19T13:38:16;101374.63;;;18.54;59.81
48200;BME280;33990;44.602;10.976;2023-03-19T13:40:54;101373.78;;;18.53;59.94
48200;BME280;33990;44.602;10.976;2023-03-19T13:46:40;101367.56;;;18.53;60.50
48200;BME280;33990;44.602;10.976;2023-03-19T13:49:31;101367.56;;;18.53;60.17
48200;BME280;33990;44.602;10.976;2023-03-19T13:52:21;101363.03;;;18.53;60.40
48200;BME280;33990;44.602;10.976;2023-03-19T13:54:52;101372.91;;;18.53;60.20
48200;BME280;33990;44.602;10.976;2023-03-19T13:57:21;101371.94;;;18.54;60.84
48200;BME280;33990;44.602;10.976;2023-03-19T14:03:21;101376.31;;;18.55;60.97
48200;BME280;33990;44.602;10.976;2023-03-19T14:05:52;101367.56;;;18.53;60.10
48200;BME280;33990;44.602;10.976;2023-03-19T14:08:23;101371.09;;;18.53;60.32
48200;BME280;33990;44.602;10.976;2023-03-19T14:10:55;101369.25;;;18.54;59.61
48200;BME280;33990;44.602;10.976;2023-03-19T14:13:33;101358.66;;;18.52;59.59
48200;BME280;33990;44.602;10.976;2023-03-19T14:16:16;101350.63;;;18.52;59.05
48200;BME280;33990;44.602;10.976;2023-03-19T14:18:44;101346.31;;;18.50;59.13
48200;BME280;33990;44.602;10.976;2023-03-19T14:27:16;101360.50;;;18.52;59.47
48200;BME280;33990;44.602;10.976;2023-03-19T14:29:45;101361.44;;;18.51;59.41
48200;BME280;33990;44.602;10.976;2023-03-19T14:32:18;101361.44;;;18.51;59.11
48200;BME280;33990;44.602;10.976;2023-03-19T14:34:48;101362.41;;;18.50;59.09
48200;BME280;33990;44.602;10.976;2023-03-19T14:37:22;101364.25;;;18.49;59.05
48200;BME280;33990;44.602;10.976;2023-03-19T14:40:02;101354.50;;;18.48;58.99
48200;BME280;33990;44.602;10.976;2023-03-19T14:52:01;101342.06;;;18.47;59.31
48200;BME280;33990;44.602;10.976;2023-03-19T14:54:40;101342.06;;;18.47;59.22
48200;BME280;33990;44.602;10.976;2023-03-19T14:57:25;101347.53;;;18.46;59.36
48200;BME280;33990;44.602;10.976;2023-03-19T14:59:53;101340.34;;;18.46;59.35